Time;durP1;ratioP1;P1;durP2;ratioP2;P2;SDS_P1;SDS_P2;PMS_P1;PMS_P2;Temp;Humidity;BMP_temperature;BMP_pressure;BME280_temperature;BME280_humidity;BME280_pressure;Samples;Min_cycle;Max_cycle;Signal;HPM_P1;HPM_P2
2022/08/10 00:00:20;;;;;;;1.17;0.95;;;;;;;31.08;22.87;99077.09;5080436;28;20099;-79
2022/08/10 00:02:55;;;;;;;0.90;0.70;;;;;;;31.03;22.84;99077.66;5083425;28;20024;-79
2022/08/10 00:05:22;;;;;;;1.10;1.00;;;;;;;30.91;23.15;99069.97;5083301;28;20947;-79
2022/08/10 00:07:49;;;;;;;1.88;0.90;;;;;;;31.06;22.89;99080.41;5081938;28;20499;-79
2022/08/10 00:10:17;;;;;;;1.15;0.82;;;;;;;31.23;22.56;99087.47;5081713;28;20028;-79
2022/08/10 00:12:44;;;;;;;2.00;1.20;;;;;;;31.31;22.75;99076.66;5082219;28;20036;-79
2022/08/10 00:15:12;;;;;;;2.72;0.98;;;;;;;30.98;22.82;99083.91;5082397;28;20044;-79
2022/08/10 00:17:38;;;;;;;1.45;0.85;;;;;;;31.04;23.16;99077.19;5079882;28;20024;-79
2022/08/10 00:20:05;;;;;;;1.48;1.20;;;;;;;31.10;23.27;99074.59;5081364;28;20138;-79
2022/08/10 00:22:32;;;;;;;1.10;1.00;;;;;;;30.94;23.02;99069.06;5082303;28;20044;-79
2022/08/10 00:24:59;;;;;;;1.58;0.85;;;;;;;30.96;22.83;99078.72;5081489;28;20118;-79
2022/08/10 00:27:27;;;;;;;1.15;0.80;;;;;;;30.85;23.14;99077.47;5085340;28;20063;-79
2022/08/10 00:29:53;;;;;;;1.20;0.90;;;;;;;31.02;22.75;99076.06;5082873;28;20074;-79
2022/08/10 00:32:20;;;;;;;1.58;1.20;;;;;;;30.92;23.33;99068.72;5080120;28;20048;-79
2022/08/10 00:34:46;;;;;;;1.08;0.82;;;;;;;30.76;23.65;99078.13;5081373;28;20471;-79
2022/08/10 00:37:14;;;;;;;1.98;1.13;;;;;;;30.91;23.35;99072.81;5080321;28;20636;-79
2022/08/10 00:39:40;;;;;;;2.15;1.10;;;;;;;31.00;23.54;99068.03;5084039;28;20081;-79
2022/08/10 00:42:09;;;;;;;1.13;0.90;;;;;;;30.95;22.86;99079.19;5092864;28;20028;-79
2022/08/10 00:44:37;;;;;;;1.35;1.10;;;;;;;30.89;23.04;99072.47;5081612;28;20039;-79
2022/08/10 00:47:04;;;;;;;2.20;1.35;;;;;;;30.74;23.08;99072.13;5082798;28;20033;-79
2022/08/10 00:49:31;;;;;;;2.35;1.38;;;;;;;30.70;23.07;99075.09;5083869;28;20028;-79
2022/08/10 00:51:57;;;;;;;2.20;1.02;;;;;;;30.68;23.58;99071.13;5095795;28;20028;-79
2022/08/10 00:54:23;;;;;;;3.40;0.82;;;;;;;30.48;23.45;99070.59;5086534;28;20040;-79
2022/08/10 00:57:09;;;;;;;1.98;1.17;;;;;;;30.49;23.08;99067.28;5087677;28;20025;-79
2022/08/10 00:59:35;;;;;;;2.97;1.35;;;;;;;30.75;22.98;99068.06;5080304;28;20503;-78
2022/08/10 01:02:01;;;;;;;2.88;1.50;;;;;;;30.96;22.47;99063.72;5081039;28;20054;-79
2022/08/10 01:04:27;;;;;;;1.38;1.08;;;;;;;30.96;23.10;99064.53;5083979;28;20068;-79
2022/08/10 01:07:15;;;;;;;1.90;1.17;;;;;;;30.70;22.96;99060.13;5083888;28;20111;-79
2022/08/10 01:09:47;;;;;;;1.90;0.90;;;;;;;30.68;23.14;99062.63;5085363;28;20449;-79
2022/08/10 01:12:15;;;;;;;1.65;1.40;;;;;;;30.71;22.98;99062.50;5086891;28;20510;-78
2022/08/10 01:14:49;;;;;;;1.33;0.90;;;;;;;30.72;22.74;99066.91;5085291;28;20036;-79
2022/08/10 01:17:19;;;;;;;1.55;1.05;;;;;;;30.75;22.57;99065.22;5085317;28;20040;-79
2022/08/10 01:20:16;;;;;;;3.55;1.30;;;;;;;30.70;22.17;99060.91;5083490;28;20113;-79
2022/08/10 01:22:57;;;;;;;1.42;1.10;;;;;;;30.51;23.25;99056.28;5082892;28;20048;-79
2022/08/10 01:25:41;;;;;;;;;;;;;;;30.45;23.71;99060.16;5084460;28;20044;-79
2022/08/10 01:28:36;;;;;;;1.85;0.93;;;;;;;30.84;22.51;99058.84;5083358;28;19916;-78
2022/08/10 01:31:04;;;;;;;1.30;0.90;;;;;;;30.87;22.42;99058.72;5084665;28;20767;-78
2022/08/10 01:33:35;;;;;;;0.82;0.77;;;;;;;30.85;22.28;99060.44;5082951;28;20055;-78
2022/08/10 01:36:26;;;;;;;1.85;0.80;;;;;;;30.35;22.76;99055.63;5084460;28;20028;-78
2022/08/10 01:38:53;;;;;;;6.25;0.90;;;;;;;30.30;22.97;99059.78;5085583;28;20133;-79
2022/08/10 01:41:25;;;;;;;2.00;1.05;;;;;;;30.22;23.02;99058.44;5083864;28;20488;-79
2022/08/10 01:44:12;;;;;;;1.20;0.90;;;;;;;30.28;22.71;99058.63;5088421;28;20032;-78
2022/08/10 01:46:44;;;;;;;1.85;1.17;;;;;;;30.47;22.59;99058.44;5088940;28;20051;-79
2022/08/10 01:49:12;;;;;;;1.70;0.95;;;;;;;30.53;22.75;99058.66;5093374;28;20033;-79
2022/08/10 01:51:48;;;;;;;1.08;0.88;;;;;;;30.58;22.66;99053.22;5084352;28;20072;-78
2022/08/10 01:54:21;;;;;;;1.38;1.00;;;;;;;30.68;22.32;99054.91;5083183;28;20040;-78
2022/08/10 01:56:51;;;;;;;3.00;0.93;;;;;;;30.62;22.71;99053.13;5092321;28;20055;-78
2022/08/10 01:59:33;;;;;;;6.45;1.10;;;;;;;30.46;22.40;99050.38;5091491;28;20372;-78
2022/08/10 02:02:05;;;;;;;2.75;1.20;;;;;;;30.51;22.49;99059.13;5089869;28;20067;-78
2022/08/10 02:04:36;;;;;;;2.35;0.80;;;;;;;30.65;22.52;99060.69;5088712;28;20032;-78
2022/08/10 02:07:05;;;;;;;2.55;1.10;;;;;;;30.50;22.71;99062.41;5086144;28;20075;-78
2022/08/10 02:09:35;;;;;;;1.35;0.98;;;;;;;30.64;22.40;99064.78;5088350;28;20112;-78
2022/08/10 02:12:08;;;;;;;1.73;0.70;;;;;;;30.48;22.22;99059.25;5084859;28;20032;-78
2022/08/10 02:14:45;;;;;;;1.35;0.80;;;;;;;30.11;22.62;99060.78;5087396;28;20040;-78
2022/08/10 02:17:17;;;;;;;0.88;0.70;;;;;;;29.63;23.20;99064.66;5083646;28;20037;-78
2022/08/10 02:19:45;;;;;;;1.65;1.08;;;;;;;29.62;23.13;99065.06;5085447;28;20040;-78
2022/08/10 02:22:13;;;;;;;1.23;0.90;;;;;;;29.85;22.62;99062.03;5086878;28;20083;-77
2022/08/10 02:24:41;;;;;;;1.52;0.90;;;;;;;30.02;22.53;99069.16;5084082;28;20031;-77
2022/08/10 02:27:09;;;;;;;1.35;0.80;;;;;;;30.01;22.22;99059.88;5085599;28;20032;-78
2022/08/10 02:29:37;;;;;;;1.30;0.75;;;;;;;30.09;22.42;99063.28;5086624;28;20036;-78
2022/08/10 02:32:05;;;;;;;0.77;0.77;;;;;;;30.18;22.31;99063.41;5086596;28;20035;-78
2022/08/10 02:34:33;;;;;;;0.80;0.80;;;;;;;30.10;22.60;99067.72;5088459;28;20032;-78
2022/08/10 02:37:02;;;;;;;1.60;0.90;;;;;;;29.93;22.75;99069.03;5086256;28;20036;-78
2022/08/10 02:39:30;;;;;;;2.00;0.90;;;;;;;30.02;22.53;99069.97;5086513;28;20062;-78
2022/08/10 02:42:04;;;;;;;1.35;0.70;;;;;;;30.08;22.12;99076.63;5087882;28;20024;-78
2022/08/10 02:44:44;;;;;;;1.80;0.85;;;;;;;30.23;21.93;99071.34;5086648;28;20426;-78
2022/08/10 02:47:27;;;;;;;1.17;0.70;;;;;;;30.32;21.55;99073.47;5082956;28;20036;-78
2022/08/10 02:50:16;;;;;;;2.85;0.80;;;;;;;30.03;22.14;99070.75;5082843;28;20036;-78
2022/08/10 02:52:46;;;;;;;0.85;0.80;;;;;;;29.60;22.56;99081.72;5084789;28;20036;-78
2022/08/10 02:55:36;;;;;;;1.23;0.80;;;;;;;29.34;22.93;99084.44;5084483;28;20471;-78
2022/08/10 02:58:07;;;;;;;1.23;0.80;;;;;;;29.33;23.25;99082.09;5083540;28;20098;-77
2022/08/10 03:00:42;;;;;;;1.08;0.70;;;;;;;29.35;23.14;99088.88;5082172;28;21014;-78
2022/08/10 03:03:15;;;;;;;1.27;0.73;;;;;;;29.58;23.00;99085.00;5080074;28;20077;-78
2022/08/10 03:05:42;;;;;;;1.85;0.90;;;;;;;29.86;22.54;99081.38;5081175;28;20442;-78
2022/08/10 03:08:11;;;;;;;0.65;0.65;;;;;;;29.85;22.31;99085.44;5086545;28;20488;-78
2022/08/10 03:10:40;;;;;;;1.80;0.80;;;;;;;29.80;22.71;99090.88;5083792;28;20067;-78
2022/08/10 03:13:09;;;;;;;0.85;0.60;;;;;;;29.91;22.80;99085.69;5086034;28;20032;-78
2022/08/10 03:15:38;;;;;;;0.63;0.63;;;;;;;29.87;22.40;99085.78;5086715;28;20028;-78
2022/08/10 03:18:04;;;;;;;0.98;0.88;;;;;;;29.99;22.68;99085.00;5085455;28;20033;-78
2022/08/10 03:20:35;;;;;;;1.10;0.80;;;;;;;29.65;22.84;99086.84;5082718;28;20107;-79
2022/08/10 03:23:04;;;;;;;1.00;0.90;;;;;;;29.72;23.01;99095.13;5081539;28;20040;-78
2022/08/10 03:25:31;;;;;;;0.93;0.77;;;;;;;29.70;23.01;99098.41;5085959;28;20104;-78
2022/08/10 03:27:59;;;;;;;1.67;1.10;;;;;;;29.78;22.80;99102.63;5082908;28;20033;-78
2022/08/10 03:30:26;;;;;;;1.05;0.70;;;;;;;29.90;22.45;99098.25;5085094;28;20039;-78
2022/08/10 03:32:53;;;;;;;1.15;0.80;;;;;;;29.94;22.51;99113.13;5084549;28;20052;-78
2022/08/10 03:35:21;;;;;;;1.33;0.80;;;;;;;29.89;22.67;99103.13;5082360;28;20441;-78
2022/08/10 03:37:47;;;;;;;1.25;0.95;;;;;;;29.91;22.60;99114.00;5085642;28;20051;-78
2022/08/10 03:40:13;;;;;;;0.85;0.80;;;;;;;30.07;22.57;99111.91;5086513;28;20092;-78
2022/08/10 03:42:42;;;;;;;1.23;0.80;;;;;;;29.86;22.91;99121.03;5089140;28;20032;-78
2022/08/10 03:45:09;;;;;;;1.55;0.90;;;;;;;29.61;22.77;99114.44;5092757;28;20036;-78
2022/08/10 03:47:40;;;;;;;0.80;0.80;;;;;;;29.82;22.87;99122.38;5088204;28;20055;-78
2022/08/10 03:50:08;;;;;;;1.38;0.90;;;;;;;30.04;22.51;99120.47;5087002;28;20036;-80
2022/08/10 03:52:34;;;;;;;1.08;0.88;;;;;;;30.09;22.65;99122.75;5086870;28;20034;-78
2022/08/10 03:55:01;;;;;;;2.40;0.82;;;;;;;30.06;22.50;99118.00;5086081;28;20032;-78
2022/08/10 03:57:28;;;;;;;1.85;0.90;;;;;;;29.84;22.99;99111.38;5087970;28;20032;-78
2022/08/10 03:59:55;;;;;;;1.13;0.80;;;;;;;29.57;23.05;99128.69;5085111;28;20260;-78
2022/08/10 04:02:22;;;;;;;2.10;0.70;;;;;;;29.56;23.11;99124.28;5082714;28;20039;-77
2022/08/10 04:04:48;;;;;;;0.88;0.82;;;;;;;30.04;23.12;99121.28;5081429;28;20046;-77
2022/08/10 04:07:14;;;;;;;1.05;0.90;;;;;;;30.65;22.71;99118.19;5079703;28;20036;-78
2022/08/10 04:09:41;;;;;;;1.98;0.68;;;;;;;31.30;22.33;99117.63;5081276;28;20357;-79
2022/08/10 04:12:07;;;;;;;0.70;0.70;;;;;;;31.75;22.02;99129.41;5080582;28;20062;-79
2022/08/10 04:14:33;;;;;;;1.05;0.70;;;;;;;32.02;22.08;99128.88;5079754;28;20036;-79
2022/08/10 04:16:59;;;;;;;0.95;0.90;;;;;;;32.32;22.57;99130.94;5081562;28;20032;-79
2022/08/10 04:19:28;;;;;;;1.02;0.90;;;;;;;32.71;22.54;99132.25;5080339;28;20047;-78
2022/08/10 04:22:03;;;;;;;0.98;0.80;;;;;;;33.03;21.86;99125.25;5083588;28;20048;-78
2022/08/10 04:24:33;;;;;;;2.70;1.05;;;;;;;33.11;22.13;99127.34;5083848;28;20527;-78
2022/08/10 04:27:01;;;;;;;0.75;0.75;;;;;;;32.89;22.45;99132.28;5079454;28;20151;-78
2022/08/10 04:29:28;;;;;;;1.80;1.10;;;;;;;32.68;22.22;99136.81;5082689;28;20044;-78
2022/08/10 04:31:54;;;;;;;2.53;0.93;;;;;;;32.58;22.51;99143.72;5084154;28;21059;-78
2022/08/10 04:34:21;;;;;;;3.08;0.90;;;;;;;32.74;22.72;99137.78;5080942;28;20024;-78
2022/08/10 04:36:51;;;;;;;1.10;0.90;;;;;;;32.85;22.14;99140.19;5086356;28;20041;-78
2022/08/10 04:39:18;;;;;;;1.08;0.80;;;;;;;33.00;21.82;99148.94;5091471;28;20036;-79
2022/08/10 04:41:44;;;;;;;2.40;1.00;;;;;;;33.37;22.42;99145.69;5089708;28;20024;-78
2022/08/10 04:44:10;;;;;;;2.00;1.08;;;;;;;33.66;21.99;99150.19;5091447;28;20484;-79
2022/08/10 04:46:36;;;;;;;1.38;0.90;;;;;;;33.81;22.05;99140.53;5090575;28;20032;-79
2022/08/10 04:49:02;;;;;;;0.90;0.85;;;;;;;34.08;21.52;99145.44;5091567;28;20028;-78
2022/08/10 04:51:29;;;;;;;2.30;1.20;;;;;;;34.22;21.56;99139.06;5088131;28;20028;-79
2022/08/10 04:53:55;;;;;;;1.85;0.90;;;;;;;34.39;21.03;99148.84;5088436;28;20047;-79
2022/08/10 04:56:21;;;;;;;1.17;0.90;;;;;;;34.20;21.64;99150.16;5090456;28;20488;-78
2022/08/10 04:58:47;;;;;;;3.47;1.45;;;;;;;34.23;21.62;99146.38;5081591;28;20059;-79
2022/08/10 05:01:14;;;;;;;2.03;0.90;;;;;;;34.02;21.52;99148.13;5091224;28;20028;-79
2022/08/10 05:03:40;;;;;;;2.15;1.10;;;;;;;33.70;22.28;99142.28;5086103;28;20035;-79
2022/08/10 05:06:06;;;;;;;1.92;1.02;;;;;;;33.50;22.31;99142.72;5085991;28;20025;-79
2022/08/10 05:08:32;;;;;;;2.28;1.08;;;;;;;33.26;22.86;99148.22;5086762;28;20040;-79
2022/08/10 05:10:58;;;;;;;3.65;1.25;;;;;;;33.08;22.97;99150.25;5081549;28;20034;-79
2022/08/10 05:13:24;;;;;;;3.05;1.40;;;;;;;33.13;23.76;99147.56;5088676;28;20754;-79
2022/08/10 05:15:52;;;;;;;1.83;1.13;;;;;;;33.31;23.06;99149.66;5088156;28;20028;-79
2022/08/10 05:18:18;;;;;;;0.95;0.73;;;;;;;33.51;22.65;99146.38;5089898;28;20046;-79
2022/08/10 05:20:44;;;;;;;1.10;0.70;;;;;;;34.01;22.81;99145.72;5088254;28;20079;-79
2022/08/10 05:23:10;;;;;;;1.50;0.70;;;;;;;34.57;22.33;99143.13;5092935;28;20054;-79
2022/08/10 05:25:37;;;;;;;2.13;1.23;;;;;;;34.79;21.43;99148.59;5091008;28;20387;-79
2022/08/10 05:28:03;;;;;;;2.38;0.70;;;;;;;34.89;21.21;99146.47;5082778;28;20219;-79
2022/08/10 05:30:29;;;;;;;1.20;1.05;;;;;;;35.10;21.66;99136.88;5092400;28;20024;-78
2022/08/10 05:32:55;;;;;;;0.75;0.57;;;;;;;35.37;20.95;99137.47;5074825;28;20056;-79
2022/08/10 05:35:22;;;;;;;0.82;0.73;;;;;;;35.47;21.34;99143.91;5076716;28;20028;-79
2022/08/10 05:37:50;;;;;;;2.15;0.93;;;;;;;35.72;21.31;99139.78;5078724;28;20039;-78
2022/08/10 05:40:16;;;;;;;3.83;0.80;;;;;;;35.60;20.31;99140.81;5096434;28;20083;-79
2022/08/10 05:42:43;;;;;;;4.90;1.33;;;;;;;35.20;21.39;99141.22;5090043;28;20039;-79
2022/08/10 05:45:25;;;;;;;1.77;1.27;;;;;;;35.18;21.37;99135.22;5091655;28;20039;-79
2022/08/10 05:47:52;;;;;;;1.40;0.88;;;;;;;35.18;21.51;99138.88;5107696;28;20404;-79
2022/08/10 05:50:25;;;;;;;1.05;0.80;;;;;;;35.41;21.01;99140.94;5089834;28;20508;-79
2022/08/10 05:52:51;;;;;;;3.85;1.77;;;;;;;35.48;20.66;99136.13;5091922;28;20047;-79
2022/08/10 05:55:17;;;;;;;3.35;1.25;;;;;;;35.34;20.64;99146.22;5091996;28;20032;-79
2022/08/10 05:57:45;;;;;;;1.38;1.25;;;;;;;35.42;20.94;99147.44;5090080;28;20040;-78
2022/08/10 06:00:14;;;;;;;3.22;2.20;;;;;;;35.31;22.36;99150.84;5092515;28;20181;-79
2022/08/10 06:02:53;;;;;;;5.70;1.92;;;;;;;34.48;23.77;99154.53;5085314;28;20036;-79
2022/08/10 06:05:23;;;;;;;4.10;1.75;;;;;;;33.83;24.16;99157.94;5092144;28;20040;-79
2022/08/10 06:08:14;;;;;;;3.95;1.83;;;;;;;33.72;24.42;99154.00;5090217;28;20032;-79
2022/08/10 06:10:42;;;;;;;1.83;1.38;;;;;;;34.08;23.34;99151.13;5088736;28;20993;-79
2022/08/10 06:15:58;;;;;;;1.67;1.58;;;;;;;34.50;22.96;99151.97;5091247;28;20113;-79
2022/08/10 06:18:25;;;;;;;2.33;1.50;;;;;;;34.74;22.97;99150.03;5088149;28;20036;-79
2022/08/10 06:20:52;;;;;;;1.67;1.58;;;;;;;34.20;22.66;99143.66;5087435;28;20048;-79
2022/08/10 06:23:18;;;;;;;1.98;1.30;;;;;;;34.35;23.39;99145.38;5090795;28;20035;-79
2022/08/10 06:25:44;;;;;;;1.45;1.27;;;;;;;35.07;22.23;99150.06;5088125;28;20024;-79
2022/08/10 06:28:15;;;;;;;3.25;1.40;;;;;;;34.32;23.41;99157.75;5092227;28;20059;-79
2022/08/10 06:30:44;;;;;;;1.60;1.30;;;;;;;34.65;22.68;99154.97;5090198;28;20602;-79
2022/08/10 06:33:11;;;;;;;1.33;1.08;;;;;;;34.23;23.47;99154.13;5082994;28;20040;-79
2022/08/10 06:35:39;;;;;;;1.35;1.17;;;;;;;34.14;22.63;99149.25;5080156;28;20075;-79
2022/08/10 06:38:07;;;;;;;2.08;1.27;;;;;;;34.28;23.32;99151.44;5081003;28;20029;-79
2022/08/10 06:40:39;;;;;;;1.10;1.00;;;;;;;34.39;24.23;99145.22;5080586;28;20074;-79
2022/08/10 06:43:09;;;;;;;3.00;1.40;;;;;;;34.30;23.63;99142.38;5083059;28;20082;-79
2022/08/10 06:46:07;;;;;;;2.85;1.10;;;;;;;34.96;22.98;99144.03;5081334;28;20039;-79
2022/08/10 06:48:58;;;;;;;1.33;0.90;;;;;;;35.91;21.74;99139.13;5083046;28;20084;-79
2022/08/10 06:51:30;;;;;;;1.05;0.88;;;;;;;36.56;21.52;99149.44;5083296;28;20048;-79
2022/08/10 06:54:04;;;;;;;1.55;1.13;;;;;;;36.48;21.04;99145.41;5082981;28;20446;-79
2022/08/10 06:56:34;;;;;;;1.80;1.20;;;;;;;36.85;20.58;99144.97;5082499;28;20081;-79
2022/08/10 06:59:05;;;;;;;2.30;1.33;;;;;;;37.08;20.67;99144.84;5081588;28;20085;-79
2022/08/10 07:01:33;;;;;;;;;;;;;;;37.18;20.24;99143.38;5082611;28;20041;-79
2022/08/10 07:04:05;;;;;;;1.83;1.00;;;;;;;36.33;21.58;99141.75;5080528;28;19931;-80
2022/08/10 07:06:33;;;;;;;1.23;0.90;;;;;;;35.96;21.51;99149.88;5082298;28;20091;-79
2022/08/10 07:09:00;;;;;;;2.25;1.13;;;;;;;36.11;21.51;99143.44;5080165;28;20376;-78
2022/08/10 07:11:29;;;;;;;1.30;0.98;;;;;;;35.64;21.69;99139.34;5080721;28;20040;-80
2022/08/10 07:13:57;;;;;;;1.60;1.10;;;;;;;34.56;22.82;99138.69;5081350;28;20036;-79
2022/08/10 07:16:28;;;;;;;2.88;1.33;;;;;;;33.94;23.93;99143.22;5083058;28;20060;-80
2022/08/10 07:18:57;;;;;;;1.10;0.90;;;;;;;33.30;24.32;99140.31;5079719;28;20034;-80
2022/08/10 07:21:25;;;;;;;2.40;0.80;;;;;;;32.98;24.48;99140.84;5081702;28;20052;-81
2022/08/10 07:23:53;;;;;;;0.70;0.70;;;;;;;34.37;24.91;99137.16;5079707;28;20047;-80
2022/08/10 07:26:21;;;;;;;2.85;1.00;;;;;;;34.98;24.32;99132.94;5087289;28;20078;-81
2022/08/10 07:28:49;;;;;;;1.38;0.98;;;;;;;35.34;22.99;99138.44;5090632;28;20492;-79
2022/08/10 07:31:19;;;;;;;1.45;1.30;;;;;;;33.00;24.93;99144.00;5088035;28;20102;-79
2022/08/10 07:33:48;;;;;;;2.17;1.40;;;;;;;33.20;24.59;99140.78;5091895;28;20032;-79
2022/08/10 07:36:17;;;;;;;4.43;1.33;;;;;;;33.02;26.01;99138.69;5087866;28;20062;-79
2022/08/10 07:38:44;;;;;;;1.35;0.98;;;;;;;33.97;24.39;99134.50;5088296;28;20101;-80
2022/08/10 07:41:11;;;;;;;1.73;1.40;;;;;;;31.90;25.89;99143.91;5089418;28;20480;-80
2022/08/10 07:43:39;;;;;;;1.65;1.10;;;;;;;31.54;26.14;99137.91;5089184;28;20036;-80
2022/08/10 07:46:11;;;;;;;5.97;1.60;;;;;;;32.19;25.58;99155.00;5084289;28;20384;-80
2022/08/10 07:48:47;;;;;;;1.73;1.10;;;;;;;32.02;26.38;99140.22;5081121;28;20036;-80
2022/08/10 07:51:18;;;;;;;2.60;1.25;;;;;;;31.08;26.73;99143.13;5085344;28;20048;-79
2022/08/10 07:53:49;;;;;;;1.50;1.38;;;;;;;30.85;27.43;99142.69;5081722;28;20514;-80
2022/08/10 07:56:20;;;;;;;2.65;1.77;;;;;;;31.54;26.17;99150.06;5081127;28;20039;-80
2022/08/10 07:58:49;;;;;;;2.03;1.17;;;;;;;32.64;24.82;99156.06;5083102;28;20089;-80
2022/08/10 08:01:16;;;;;;;1.75;1.23;;;;;;;30.87;26.78;99143.81;5081120;28;21302;-79
2022/08/10 08:03:47;;;;;;;2.97;1.63;;;;;;;30.70;27.31;99148.81;5078415;28;20032;-80
2022/08/10 08:06:15;;;;;;;1.95;1.55;;;;;;;32.66;25.25;99149.91;5079450;28;21618;-80
2022/08/10 08:08:42;;;;;;;2.00;1.30;;;;;;;32.49;25.38;99152.22;5082090;28;20620;-79
2022/08/10 08:11:11;;;;;;;5.68;1.30;;;;;;;31.96;25.55;99150.56;5084947;28;20058;-80
2022/08/10 08:13:38;;;;;;;1.88;1.33;;;;;;;31.04;26.33;99147.34;5091124;28;20036;-80
2022/08/10 08:16:07;;;;;;;1.83;1.33;;;;;;;30.91;26.96;99152.22;5088314;28;20028;-78
2022/08/10 08:18:36;;;;;;;1.85;1.65;;;;;;;30.59;27.27;99141.91;5089564;28;20097;-78
2022/08/10 08:21:05;;;;;;;4.95;1.60;;;;;;;31.42;28.27;99151.69;5091398;28;20071;-82
2022/08/10 08:23:33;;;;;;;3.35;1.77;;;;;;;30.01;27.84;99144.06;5074465;28;20169;-79
2022/08/10 08:26:01;;;;;;;4.30;1.85;;;;;;;30.98;26.85;99141.44;5077522;28;20098;-81
2022/08/10 08:28:29;;;;;;;3.50;1.92;;;;;;;30.94;26.21;99146.44;5085503;28;20480;-81
2022/08/10 08:30:57;;;;;;;2.60;1.70;;;;;;;31.29;25.75;99148.09;5087129;28;20434;-81
2022/08/10 08:33:24;;;;;;;2.10;1.50;;;;;;;31.21;25.77;99151.59;5088051;28;20543;-80
2022/08/10 08:35:51;;;;;;;1.80;1.52;;;;;;;30.62;26.85;99150.28;5083513;28;20420;-79
2022/08/10 08:38:17;;;;;;;1.50;1.40;;;;;;;31.51;26.16;99142.47;5089464;28;20441;-80
2022/08/10 08:40:53;;;;;;;2.97;1.58;;;;;;;32.27;24.58;99145.75;5091931;28;20446;-80
2022/08/10 08:43:26;;;;;;;2.97;1.50;;;;;;;32.26;24.64;99131.97;5077103;28;20066;-80
2022/08/10 08:46:30;;;;;;;3.83;1.50;;;;;;;31.97;25.19;99130.22;5073440;28;20043;-80
2022/08/10 08:49:22;;;;;;;2.75;1.70;;;;;;;33.57;22.86;99124.53;5087426;28;20081;-81
2022/08/10 08:52:06;;;;;;;3.00;1.50;;;;;;;33.44;23.73;99119.75;5081350;28;20036;-79
2022/08/10 08:54:57;;;;;;;3.22;1.85;;;;;;;33.40;26.09;99116.28;5091494;28;20063;-81
2022/08/10 08:57:40;;;;;;;3.83;1.67;;;;;;;34.15;23.58;99112.94;5090588;28;20059;-80
2022/08/10 09:00:22;;;;;;;1.42;1.08;;;;;;;34.77;24.65;99110.38;5091268;28;20044;-79
2022/08/10 09:03:20;;;;;;;3.83;1.48;;;;;;;33.47;24.33;99114.41;5084641;28;20032;-80
2022/08/10 09:06:14;;;;;;;5.30;1.80;;;;;;;32.37;24.98;99126.69;5073653;28;20133;-80
2022/08/10 09:09:14;;;;;;;5.35;2.50;;;;;;;32.00;25.93;99126.47;5094947;28;20032;-81
2022/08/10 09:12:17;;;;;;;5.00;2.58;;;;;;;32.31;25.50;99117.16;5067070;28;20079;-80
2022/08/10 09:14:59;;;;;;;2.92;1.70;;;;;;;32.83;25.11;99102.88;5088462;28;20040;-80
2022/08/10 09:17:54;;;;;;;3.85;2.00;;;;;;;32.13;25.76;99100.03;5087392;28;20075;-80
2022/08/10 09:20:35;;;;;;;4.22;2.47;;;;;;;31.78;26.87;99117.16;5086323;28;20033;-80
2022/08/10 09:23:23;;;;;;;2.42;2.22;;;;;;;32.08;25.20;99112.78;5087125;28;20145;-81
2022/08/10 09:25:59;;;;;;;4.85;2.25;;;;;;;32.75;24.30;99104.44;5081796;28;20497;-80
2022/08/10 09:28:30;;;;;;;2.10;1.88;;;;;;;32.42;25.07;99106.16;5083930;28;20119;-81
2022/08/10 09:31:07;;;;;;;9.27;2.17;;;;;;;32.29;24.44;99114.00;5093503;28;20506;-81
2022/08/10 09:33:43;;;;;;;4.32;2.42;;;;;;;32.76;24.90;99100.34;5082613;28;20128;-80
2022/08/10 09:36:36;;;;;;;1.60;1.45;;;;;;;33.66;24.00;99105.41;5076464;28;20067;-80
2022/08/10 09:39:09;;;;;;;4.15;1.98;;;;;;;33.52;23.58;99110.91;5095631;28;20032;-81
2022/08/10 09:42:11;;;;;;;3.67;1.65;;;;;;;34.05;23.05;99104.41;5084367;28;20043;-80
2022/08/10 09:45:10;;;;;;;1.38;1.13;;;;;;;35.28;21.66;99100.41;5072076;28;20201;-81
2022/08/10 09:47:48;;;;;;;2.40;1.10;;;;;;;34.77;21.95;99099.75;5087383;28;20110;-81
2022/08/10 09:50:33;;;;;;;1.10;0.98;;;;;;;35.51;22.33;99092.31;5082700;28;20392;-82
2022/08/10 09:53:19;;;;;;;2.05;0.98;;;;;;;34.97;20.60;99094.25;5087098;28;20082;-81
2022/08/10 09:56:09;;;;;;;1.45;0.80;;;;;;;35.60;19.69;99083.66;5083175;28;20035;-81
2022/08/10 09:58:45;;;;;;;;;;;;;;;36.22;19.93;99090.06;5090775;28;20039;-81
2022/08/10 10:01:34;;;;;;;1.02;0.90;;;;;;;36.81;20.50;99087.91;5090807;28;20394;-81
2022/08/10 10:04:27;;;;;;;1.40;1.23;;;;;;;36.51;20.42;99094.97;5091351;28;20404;-81
2022/08/10 10:07:04;;;;;;;1.50;1.00;;;;;;;34.52;20.97;99088.72;5093220;28;20028;-81
2022/08/10 10:10:10;;;;;;;1.17;1.05;;;;;;;34.07;21.67;99081.16;5094225;28;20055;-81
2022/08/10 10:13:07;;;;;;;1.33;1.02;;;;;;;33.20;22.33;99078.16;5081789;28;20109;-79
2022/08/10 10:15:47;;;;;;;1.55;1.15;;;;;;;33.07;23.39;99081.13;5079252;28;20511;-81
2022/08/10 10:18:21;;;;;;;1.27;0.90;;;;;;;34.68;21.57;99071.28;5081851;28;20037;-80
2022/08/10 10:21:19;;;;;;;1.25;0.90;;;;;;;36.03;19.70;99071.53;5079850;28;20114;-80
2022/08/10 10:24:03;;;;;;;1.05;0.82;;;;;;;35.54;20.06;99072.16;5081025;28;20035;-81
2022/08/10 10:27:00;;;;;;;1.02;0.80;;;;;;;36.44;19.61;99072.47;5084212;28;20040;-81
2022/08/10 10:29:35;;;;;;;0.73;0.73;;;;;;;37.39;20.21;99061.91;5084882;28;20523;-81
2022/08/10 10:32:21;;;;;;;1.73;0.80;;;;;;;38.02;17.49;99065.75;5083063;28;20028;-82
2022/08/10 10:34:55;;;;;;;3.58;0.70;;;;;;;36.82;18.50;99063.72;5085285;28;20499;-81
2022/08/10 10:37:23;;;;;;;0.85;0.80;;;;;;;34.93;19.94;99058.59;5088144;28;20024;-81
2022/08/10 10:39:54;;;;;;;1.00;0.82;;;;;;;34.04;20.66;99062.94;5088807;28;20039;-80
2022/08/10 10:42:39;;;;;;;1.23;0.60;;;;;;;33.79;20.74;99063.31;5087560;28;20423;-80
2022/08/10 10:45:14;;;;;;;1.50;0.88;;;;;;;35.07;18.95;99052.19;5089734;28;20028;-81
2022/08/10 10:48:20;;;;;;;0.70;0.70;;;;;;;37.14;17.91;99050.38;5081902;28;20082;-81
2022/08/10 10:51:05;;;;;;;1.15;0.80;;;;;;;35.58;18.89;99052.75;5089613;28;20055;-81
2022/08/10 10:53:46;;;;;;;1.95;0.70;;;;;;;35.26;20.21;99050.78;5082784;28;20040;-80
2022/08/10 10:56:35;;;;;;;3.25;0.90;;;;;;;34.37;20.91;99043.03;5083237;28;20606;-80
2022/08/10 10:59:35;;;;;;;1.55;0.80;;;;;;;34.11;20.76;99055.31;5082051;28;20068;-82
2022/08/10 11:02:21;;;;;;;0.80;0.60;;;;;;;35.50;20.54;99045.03;5083527;28;20083;-81
2022/08/10 11:05:19;;;;;;;0.95;0.70;;;;;;;36.26;19.39;99044.88;5083236;28;20181;-80
2022/08/10 11:07:59;;;;;;;1.15;0.77;;;;;;;34.99;19.96;99042.38;5084556;28;20452;-81
2022/08/10 11:10:43;;;;;;;1.73;0.90;;;;;;;34.75;20.03;99034.59;5083074;28;20043;-81
2022/08/10 11:13:47;;;;;;;1.30;0.57;;;;;;;35.29;19.87;99049.78;5086780;28;20119;-78
2022/08/10 11:16:27;;;;;;;1.73;0.90;;;;;;;35.02;20.02;99032.88;5077869;28;20074;-78
2022/08/10 11:19:02;;;;;;;;;;;;;;;34.64;20.79;99034.34;5082524;28;20040;-78
2022/08/10 11:21:50;;;;;;;0.80;0.70;;;;;;;35.00;20.00;99029.69;5083783;28;20280;-78
2022/08/10 11:24:38;;;;;;;1.48;0.90;;;;;;;36.15;19.68;99030.41;5082773;28;20048;-78
2022/08/10 11:27:16;;;;;;;0.80;0.80;;;;;;;34.00;20.11;99039.47;5079535;28;20107;-77
2022/08/10 11:29:51;;;;;;;1.52;0.77;;;;;;;33.52;21.61;99031.97;5080472;28;20032;-78
2022/08/10 11:32:30;;;;;;;1.30;0.80;;;;;;;35.35;20.25;99030.69;5080671;28;20036;-78
2022/08/10 11:35:25;;;;;;;1.30;0.80;;;;;;;34.60;19.33;99027.25;5080663;28;20037;-78
2022/08/10 11:38:16;;;;;;;1.90;0.77;;;;;;;35.57;19.82;99031.16;5074335;28;20572;-79
2022/08/10 11:41:24;;;;;;;2.10;0.85;;;;;;;33.39;20.74;99026.44;5081281;28;20029;-77
2022/08/10 11:44:14;;;;;;;1.33;1.00;;;;;;;33.12;20.92;99026.44;5067429;28;20441;-78
2022/08/10 11:46:56;;;;;;;0.70;0.70;;;;;;;33.44;21.04;99022.94;5072563;28;20047;-77
2022/08/10 11:49:51;;;;;;;1.58;0.90;;;;;;;33.55;21.58;99031.03;5081798;28;20064;-77
2022/08/10 11:52:39;;;;;;;0.95;0.85;;;;;;;34.25;21.14;99024.06;5082786;28;20059;-78
2022/08/10 11:55:17;;;;;;;1.88;0.65;;;;;;;34.62;19.94;99028.34;5079335;28;20024;-76
2022/08/10 11:57:46;;;;;;;0.93;0.60;;;;;;;34.89;19.53;99032.31;5079604;28;20037;-78
2022/08/10 12:00:13;;;;;;;0.63;0.60;;;;;;;34.69;19.34;99021.47;5079695;28;20040;-80
2022/08/10 12:03:07;;;;;;;1.25;0.80;;;;;;;33.41;20.78;99023.13;5081070;28;20510;-81
2022/08/10 12:05:38;;;;;;;0.68;0.68;;;;;;;35.16;19.37;99012.94;5084406;28;20102;-83
2022/08/10 12:08:04;;;;;;;0.70;0.60;;;;;;;36.34;18.11;99016.66;5088904;28;20460;-82